Time;durP1;ratioP1;P1;durP2;ratioP2;P2;SDS_P1;SDS_P2;PMS_P1;PMS_P2;Temp;Humidity;BMP_temperature;BMP_pressure;BME280_temperature;BME280_humidity;BME280_pressure;Samples;Min_cycle;Max_cycle;Signal;HPM_P1;HPM_P2
2023/09/05 00:01:32;;;;;;;3.67;2.57;;;17.30;99.90;;;;;;4190535;28;20321;-77
2023/09/05 00:03:33;;;;;;;4.50;2.40;;;17.30;99.90;;;;;;4190230;28;20206;-77
2023/09/05 00:05:35;;;;;;;3.67;2.63;;;17.30;99.90;;;;;;4188490;28;20201;-77
2023/09/05 00:07:38;;;;;;;4.07;2.33;;;17.30;99.90;;;;;;4186696;28;20224;-77
2023/09/05 00:09:40;;;;;;;3.57;2.50;;;17.30;99.90;;;;;;4184396;28;20213;-77
2023/09/05 00:11:41;;;;;;;4.57;2.90;;;17.30;99.90;;;;;;4191274;28;20230;-77
2023/09/05 00:13:43;;;;;;;3.20;2.60;;;17.20;99.90;;;;;;4191857;28;20262;-77
2023/09/05 00:15:47;;;;;;;4.07;2.50;;;17.20;99.90;;;;;;4195724;28;20221;-77
2023/09/05 00:17:48;;;;;;;4.93;2.97;;;17.20;99.90;;;;;;4183303;28;20221;-77
2023/09/05 00:19:51;;;;;;;4.10;2.90;;;17.20;99.90;;;;;;4190932;28;20659;-77
2023/09/05 00:21:53;;;;;;;3.40;2.63;;;17.20;99.90;;;;;;4192613;28;20232;-77
2023/09/05 00:24:15;;;;;;;3.00;2.30;;;17.20;99.90;;;;;;4189344;28;20209;-77
2023/09/05 00:26:18;;;;;;;2.93;2.50;;;17.20;99.90;;;;;;4189007;28;20911;-77
2023/09/05 00:28:20;;;;;;;5.03;2.80;;;17.10;99.90;;;;;;4189236;28;20232;-77
2023/09/05 00:30:22;;;;;;;4.03;2.97;;;17.10;99.90;;;;;;4189112;28;20771;-77
2023/09/05 00:32:24;;;;;;;5.07;2.80;;;17.10;99.90;;;;;;4189557;28;20209;-76
2023/09/05 00:34:27;;;;;;;3.23;2.50;;;17.10;99.90;;;;;;4186933;28;20203;-77
2023/09/05 00:36:28;;;;;;;3.97;2.57;;;17.10;99.90;;;;;;4192687;28;20251;-77
2023/09/05 00:38:30;;;;;;;4.13;2.77;;;17.10;99.90;;;;;;4195920;28;20201;-77
2023/09/05 00:40:32;;;;;;;5.20;2.90;;;17.00;99.90;;;;;;4187390;28;20205;-77
2023/09/05 00:42:35;;;;;;;4.00;2.70;;;17.00;99.90;;;;;;4191457;28;20225;-77
2023/09/05 00:44:37;;;;;;;5.90;2.67;;;17.00;99.90;;;;;;4181457;28;20698;-77
2023/09/05 00:46:39;;;;;;;2.83;2.60;;;17.00;99.90;;;;;;4192945;28;20213;-77
2023/09/05 00:48:42;;;;;;;2.93;2.30;;;17.00;99.90;;;;;;4192415;28;20204;-77
2023/09/05 00:50:46;;;;;;;4.27;2.60;;;17.00;99.90;;;;;;4193002;28;20228;-77
2023/09/05 00:52:48;;;;;;;3.50;2.57;;;16.90;99.90;;;;;;4187341;28;20272;-77
2023/09/05 00:54:50;;;;;;;5.00;2.50;;;16.90;99.90;;;;;;4191501;28;20267;-77
2023/09/05 00:56:53;;;;;;;4.13;3.10;;;16.90;99.90;;;;;;4193636;28;20285;-77
2023/09/05 00:58:56;;;;;;;4.07;2.50;;;16.90;99.90;;;;;;4189703;28;20213;-77
2023/09/05 01:00:58;;;;;;;5.93;2.70;;;16.90;99.90;;;;;;4195680;28;20231;-77
2023/09/05 01:02:59;;;;;;;4.23;2.80;;;16.90;99.90;;;;;;4191541;28;20665;-77
2023/09/05 01:05:01;;;;;;;4.80;2.80;;;16.90;99.90;;;;;;4186018;28;20261;-77
2023/09/05 01:07:08;;;;;;;3.43;2.50;;;16.80;99.90;;;;;;4191924;28;20206;-77
2023/09/05 01:09:21;;;;;;;3.43;2.53;;;16.80;99.90;;;;;;4192641;28;20212;-77
2023/09/05 01:11:25;;;;;;;5.37;2.43;;;16.80;99.90;;;;;;4187192;28;20236;-77
2023/09/05 01:13:28;;;;;;;3.20;2.63;;;16.80;99.90;;;;;;4191004;28;20258;-77
2023/09/05 01:15:31;;;;;;;4.07;2.70;;;16.80;99.90;;;;;;4188616;28;20650;-76
2023/09/05 01:17:33;;;;;;;3.33;2.60;;;16.80;99.90;;;;;;4189705;28;20631;-76
2023/09/05 01:19:39;;;;;;;3.73;2.70;;;16.70;99.90;;;;;;4189114;28;20696;-77
2023/09/05 01:21:48;;;;;;;4.07;2.60;;;16.70;99.90;;;;;;4194280;28;20236;-77
2023/09/05 01:23:55;;;;;;;5.00;2.70;;;16.70;99.90;;;;;;4181387;28;20201;-77
2023/09/05 01:25:59;;;;;;;3.10;2.50;;;16.70;99.90;;;;;;4185357;28;20546;-77
2023/09/05 01:28:02;;;;;;;4.70;2.50;;;16.70;99.90;;;;;;4182944;28;20227;-77
2023/09/05 01:30:06;;;;;;;3.10;2.47;;;16.60;99.90;;;;;;4189974;28;20213;-77
2023/09/05 01:32:09;;;;;;;3.53;2.60;;;16.60;99.90;;;;;;4187001;28;20291;-77
2023/09/05 01:34:11;;;;;;;3.17;2.47;;;16.60;99.90;;;;;;4187461;28;20266;-77
2023/09/05 01:36:15;;;;;;;4.97;2.90;;;16.60;99.90;;;;;;4190732;28;20224;-77
2023/09/05 01:38:17;;;;;;;5.63;2.87;;;16.50;99.90;;;;;;4188841;28;20303;-77
2023/09/05 01:40:20;;;;;;;3.17;2.57;;;16.60;99.90;;;;;;4188767;28;20269;-77
2023/09/05 01:42:23;;;;;;;3.23;2.47;;;16.50;99.90;;;;;;4188985;28;20201;-77
2023/09/05 01:44:25;;;;;;;5.80;2.83;;;16.50;99.90;;;;;;4188734;28;20212;-77
2023/09/05 01:46:26;;;;;;;3.33;2.50;;;16.50;99.90;;;;;;4188249;28;20643;-77
2023/09/05 01:48:28;;;;;;;3.53;2.40;;;16.50;99.90;;;;;;4189480;28;20200;-77
2023/09/05 01:50:33;;;;;;;3.70;2.67;;;16.40;99.90;;;;;;4190716;28;20209;-77
2023/09/05 01:52:35;;;;;;;3.27;2.73;;;16.40;99.90;;;;;;4193438;28;20231;-77
2023/09/05 01:54:39;;;;;;;3.30;2.47;;;16.40;99.90;;;;;;4194846;28;20560;-77
2023/09/05 01:56:40;;;;;;;2.97;2.57;;;16.40;99.90;;;;;;4190083;28;20223;-78
2023/09/05 01:58:44;;;;;;;2.60;2.30;;;16.30;99.90;;;;;;4190179;28;20274;-77
2023/09/05 02:00:46;;;;;;;3.17;2.73;;;16.30;99.90;;;;;;4187130;28;20258;-77
2023/09/05 02:02:46;;;;;;;3.90;2.67;;;16.30;99.90;;;;;;4191076;28;20208;-77
2023/09/05 02:04:49;;;;;;;2.80;2.30;;;16.30;99.90;;;;;;4189226;28;20274;-77
2023/09/05 02:06:51;;;;;;;4.73;2.77;;;16.30;99.90;;;;;;4190988;28;20257;-78
2023/09/05 02:08:53;;;;;;;3.83;2.70;;;16.20;99.90;;;;;;4190724;28;20243;-77
2023/09/05 02:10:55;;;;;;;4.23;2.77;;;16.20;99.90;;;;;;4187999;28;20243;-77
2023/09/05 02:12:57;;;;;;;5.80;2.80;;;16.20;99.90;;;;;;4191288;28;20691;-76
2023/09/05 02:15:00;;;;;;;4.27;2.70;;;16.20;99.90;;;;;;4196574;28;20337;-75
2023/09/05 02:17:02;;;;;;;3.37;2.70;;;16.20;99.90;;;;;;4189263;28;20223;-76
2023/09/05 02:19:04;;;;;;;5.60;2.80;;;16.20;99.90;;;;;;4190142;28;20255;-76
2023/09/05 02:21:06;;;;;;;3.43;2.87;;;16.20;99.90;;;;;;4191232;28;20228;-76
2023/09/05 02:23:08;;;;;;;5.80;2.87;;;16.10;99.90;;;;;;4188711;28;20204;-76
2023/09/05 02:25:11;;;;;;;6.70;3.00;;;16.00;99.90;;;;;;4192901;28;20209;-77
2023/09/05 02:27:13;;;;;;;4.00;2.43;;;16.10;99.90;;;;;;4186199;28;20208;-77
2023/09/05 02:29:15;;;;;;;3.40;2.87;;;16.10;99.90;;;;;;4192241;28;20211;-76
2023/09/05 02:31:19;;;;;;;4.67;3.00;;;16.00;99.90;;;;;;4189635;28;20235;-78
2023/09/05 02:33:21;;;;;;;3.13;2.50;;;16.00;99.90;;;;;;4191224;28;20220;-78
2023/09/05 02:35:23;;;;;;;4.63;2.50;;;15.90;99.90;;;;;;4186860;28;20202;-76
2023/09/05 02:37:27;;;;;;;3.70;2.60;;;15.90;99.90;;;;;;4195138;28;20309;-76
2023/09/05 02:39:29;;;;;;;5.97;3.00;;;15.90;99.90;;;;;;4188972;28;20255;-76
2023/09/05 02:41:31;;;;;;;5.23;3.00;;;15.80;99.90;;;;;;4191361;28;20641;-76
2023/09/05 02:43:32;;;;;;;5.03;2.87;;;15.80;99.90;;;;;;4191679;28;20468;-76
2023/09/05 02:45:34;;;;;;;4.23;3.30;;;15.80;99.90;;;;;;4194563;28;20677;-76
2023/09/05 02:47:38;;;;;;;3.90;2.90;;;15.70;99.90;;;;;;4188248;28;20260;-76
2023/09/05 02:49:40;;;;;;;5.40;3.00;;;15.70;99.90;;;;;;4188759;28;20734;-76
2023/09/05 02:51:44;;;;;;;3.83;3.10;;;15.70;99.90;;;;;;4190909;28;20230;-76
2023/09/05 02:53:48;;;;;;;4.43;2.77;;;15.70;99.90;;;;;;4195448;28;20272;-78
2023/09/05 02:55:49;;;;;;;4.03;2.77;;;15.60;99.90;;;;;;4192972;28;20226;-78
2023/09/05 02:57:51;;;;;;;3.43;2.77;;;15.60;99.90;;;;;;4192292;28;20232;-78
2023/09/05 02:59:53;;;;;;;4.33;2.80;;;15.60;99.90;;;;;;4202945;28;20203;-78
2023/09/05 03:01:54;;;;;;;3.77;2.77;;;15.60;99.90;;;;;;4186846;28;20231;-78
2023/09/05 03:03:57;;;;;;;4.20;2.83;;;15.50;99.90;;;;;;4189371;28;20544;-78
2023/09/05 03:06:08;;;;;;;4.10;2.70;;;15.50;99.90;;;;;;4185595;28;20203;-78
2023/09/05 03:08:10;;;;;;;4.17;2.93;;;15.50;99.90;;;;;;4190852;28;20631;-76
2023/09/05 03:10:12;;;;;;;4.37;2.87;;;15.40;99.90;;;;;;4188313;28;20203;-76
2023/09/05 03:12:15;;;;;;;4.40;2.70;;;15.40;99.90;;;;;;4197068;28;21073;-76
2023/09/05 03:14:17;;;;;;;3.80;3.10;;;15.40;99.90;;;;;;4191848;28;20213;-76
2023/09/05 03:16:21;;;;;;;4.27;3.20;;;15.40;99.90;;;;;;4191125;28;20229;-76
2023/09/05 03:18:25;;;;;;;4.20;2.97;;;15.40;99.90;;;;;;4191113;28;20707;-76
2023/09/05 03:20:27;;;;;;;4.00;2.90;;;15.30;99.90;;;;;;4185794;28;20212;-76
2023/09/05 03:22:29;;;;;;;3.83;3.00;;;15.30;99.90;;;;;;4189849;28;20255;-76
2023/09/05 03:24:31;;;;;;;7.23;3.13;;;15.30;99.90;;;;;;4188743;28;20202;-76
2023/09/05 03:26:33;;;;;;;4.13;3.20;;;15.30;99.90;;;;;;4190702;28;20239;-76
2023/09/05 03:28:42;;;;;;;3.77;2.80;;;15.20;99.90;;;;;;4187548;28;20206;-76
2023/09/05 03:30:44;;;;;;;5.10;3.00;;;15.20;99.90;;;;;;4188126;28;20226;-76
2023/09/05 03:32:46;;;;;;;4.63;3.20;;;15.20;99.90;;;;;;4188756;28;20207;-76
2023/09/05 03:34:51;;;;;;;5.50;3.00;;;15.20;99.90;;;;;;4187842;28;20211;-76
2023/09/05 03:36:54;;;;;;;4.40;2.90;;;15.20;99.90;;;;;;4190459;28;20577;-76
2023/09/05 03:38:55;;;;;;;5.00;3.37;;;15.20;99.90;;;;;;4191228;28;20191;-75
2023/09/05 03:40:57;;;;;;;6.93;3.60;;;15.20;99.90;;;;;;4191133;28;20229;-76
2023/09/05 03:42:59;;;;;;;4.77;3.30;;;15.20;99.90;;;;;;4184845;28;20216;-76
2023/09/05 03:45:01;;;;;;;6.73;3.60;;;15.20;99.90;;;;;;4184543;28;20264;-76
2023/09/05 03:47:02;;;;;;;5.93;3.50;;;15.20;99.90;;;;;;4184441;28;20216;-76
2023/09/05 03:49:04;;;;;;;5.57;3.70;;;15.20;99.90;;;;;;4187842;28;20198;-76
2023/09/05 03:51:06;;;;;;;6.83;3.77;;;15.10;99.90;;;;;;4191114;28;20218;-78
2023/09/05 03:53:09;;;;;;;4.87;3.23;;;15.10;99.90;;;;;;4185873;28;20214;-77
2023/09/05 03:55:12;;;;;;;5.17;3.43;;;15.10;99.90;;;;;;4195939;28;20260;-76
2023/09/05 03:57:16;;;;;;;5.67;3.80;;;15.10;99.90;;;;;;4193335;28;20226;-75
2023/09/05 03:59:18;;;;;;;5.50;3.87;;;15.10;99.90;;;;;;4195107;28;20675;-75
2023/09/05 04:01:19;;;;;;;5.30;3.73;;;15.10;99.90;;;;;;4193962;28;20227;-75
2023/09/05 04:03:21;;;;;;;5.50;3.90;;;15.10;99.90;;;;;;4188891;28;20202;-76
2023/09/05 04:05:24;;;;;;;4.60;3.47;;;15.00;99.90;;;;;;4191988;28;20260;-75
2023/09/05 04:07:26;;;;;;;5.60;3.47;;;14.90;99.90;;;;;;4190124;28;20684;-75
2023/09/05 04:09:29;;;;;;;5.10;3.33;;;15.00;99.90;;;;;;4191513;28;20206;-75
2023/09/05 04:11:31;;;;;;;4.83;3.47;;;15.00;99.90;;;;;;4188661;28;20283;-74
2023/09/05 04:13:33;;;;;;;4.87;3.30;;;15.00;99.90;;;;;;4191478;28;20212;-75
2023/09/05 04:15:36;;;;;;;5.43;3.40;;;14.90;99.90;;;;;;4193568;28;20228;-75
2023/09/05 04:17:40;;;;;;;5.10;3.43;;;14.90;99.90;;;;;;4188709;28;20217;-75
2023/09/05 04:19:42;;;;;;;5.03;3.60;;;14.90;99.90;;;;;;4192343;28;20252;-75
2023/09/05 04:21:43;;;;;;;4.67;3.67;;;14.90;99.90;;;;;;4195068;28;20229;-75
2023/09/05 04:23:44;;;;;;;7.30;4.10;;;14.90;99.90;;;;;;4192205;28;20202;-75
2023/09/05 04:25:56;;;;;;;6.33;4.07;;;14.90;99.90;;;;;;4189361;28;20742;-75
2023/09/05 04:27:58;;;;;;;7.60;4.77;;;14.90;99.90;;;;;;4191276;28;20202;-75
2023/09/05 04:30:00;;;;;;;5.57;3.87;;;14.90;99.90;;;;;;4194292;28;20699;-76
2023/09/05 04:32:02;;;;;;;4.47;3.33;;;14.90;99.90;;;;;;4190390;28;20711;-75
2023/09/05 04:34:04;;;;;;;5.90;4.07;;;14.90;99.90;;;;;;4192462;28;20621;-75
2023/09/05 04:36:08;;;;;;;5.37;3.90;;;14.90;99.90;;;;;;4192587;28;20198;-75
2023/09/05 04:38:10;;;;;;;5.60;3.90;;;14.90;99.90;;;;;;4194156;28;20225;-75
2023/09/05 04:40:12;;;;;;;7.50;4.07;;;14.90;99.90;;;;;;4191047;28;20240;-76
2023/09/05 04:42:15;;;;;;;7.47;4.17;;;14.90;99.90;;;;;;4190597;28;20234;-75
2023/09/05 04:44:17;;;;;;;7.97;4.90;;;14.90;99.90;;;;;;4185042;28;20210;-76
2023/09/05 04:46:19;;;;;;;6.20;3.70;;;14.90;99.90;;;;;;4191883;28;20210;-76
2023/09/05 04:48:20;;;;;;;5.47;4.03;;;14.90;99.90;;;;;;4196206;28;20259;-76
2023/09/05 04:50:23;;;;;;;6.30;3.80;;;14.80;99.90;;;;;;4191589;28;20205;-75
2023/09/05 04:52:27;;;;;;;5.03;3.60;;;14.80;99.90;;;;;;4202005;28;20223;-77
2023/09/05 04:54:29;;;;;;;7.77;4.23;;;14.80;99.90;;;;;;4193690;28;20286;-77
2023/09/05 04:56:31;;;;;;;7.13;4.23;;;14.80;99.90;;;;;;4205627;28;20210;-77
2023/09/05 04:58:34;;;;;;;5.03;3.40;;;14.80;99.90;;;;;;4192451;28;20255;-76
2023/09/05 05:00:36;;;;;;;7.20;3.90;;;14.80;99.90;;;;;;4193113;28;20206;-75
2023/09/05 05:02:38;;;;;;;6.53;4.10;;;14.80;99.90;;;;;;4193442;28;20212;-75
2023/09/05 05:04:41;;;;;;;6.87;3.97;;;14.80;99.90;;;;;;4185445;28;20309;-75
2023/09/05 05:06:42;;;;;;;8.50;4.10;;;14.80;99.90;;;;;;4189691;28;20272;-76
2023/09/05 05:08:43;;;;;;;6.57;4.10;;;14.80;99.90;;;;;;4191312;28;20259;-75
2023/09/05 05:10:45;;;;;;;5.27;3.73;;;14.70;99.90;;;;;;4190191;28;20229;-75
2023/09/05 05:12:47;;;;;;;5.67;3.70;;;14.80;99.90;;;;;;4190232;28;20620;-76
2023/09/05 05:14:50;;;;;;;5.80;4.20;;;14.80;99.90;;;;;;4182585;28;20202;-77
2023/09/05 05:16:53;;;;;;;4.83;3.77;;;14.70;99.90;;;;;;4183393;28;20226;-76
2023/09/05 05:18:56;;;;;;;5.83;4.00;;;14.70;99.90;;;;;;4186938;28;20267;-76
2023/09/05 05:20:58;;;;;;;6.23;4.13;;;14.70;99.90;;;;;;4184331;28;20719;-75
2023/09/05 05:22:59;;;;;;;4.90;3.37;;;14.70;99.90;;;;;;4184303;28;20660;-75
2023/09/05 05:25:00;;;;;;;9.00;3.87;;;14.70;99.90;;;;;;4185346;28;20197;-75
2023/09/05 05:27:02;;;;;;;6.47;4.10;;;14.70;99.90;;;;;;4185356;28;20259;-75
2023/09/05 05:29:04;;;;;;;5.00;3.93;;;14.70;99.90;;;;;;4186575;28;20264;-75
2023/09/05 05:31:14;;;;;;;5.33;3.97;;;14.70;99.90;;;;;;4186284;28;20284;-75
2023/09/05 05:33:15;;;;;;;6.13;4.00;;;14.80;99.90;;;;;;4189038;28;20686;-75
2023/09/05 05:35:17;;;;;;;8.63;4.67;;;14.80;99.90;;;;;;4187907;28;20273;-75
2023/09/05 05:37:19;;;;;;;9.37;5.90;;;14.80;99.90;;;;;;4184661;28;20635;-75
2023/09/05 05:39:23;;;;;;;7.50;4.83;;;14.80;99.90;;;;;;4187015;28;20206;-75
2023/09/05 05:41:26;;;;;;;7.73;5.10;;;14.80;99.90;;;;;;4187743;28;20321;-75
2023/09/05 05:43:30;;;;;;;6.77;4.43;;;14.80;99.90;;;;;;4183356;28;20203;-75
2023/09/05 05:45:34;;;;;;;6.70;3.90;;;14.80;99.90;;;;;;4189664;28;20705;-75
2023/09/05 05:47:38;;;;;;;6.67;4.70;;;14.90;99.90;;;;;;4192926;28;20224;-75
2023/09/05 05:49:39;;;;;;;5.90;4.03;;;14.90;99.90;;;;;;4192269;28;20972;-75
2023/09/05 05:51:41;;;;;;;9.10;4.07;;;14.90;99.90;;;;;;4190811;28;20222;-75
2023/09/05 05:53:44;;;;;;;6.33;3.70;;;14.90;99.90;;;;;;4190053;28;20740;-75
2023/09/05 05:55:46;;;;;;;5.93;3.57;;;15.00;99.90;;;;;;4197441;28;20212;-75
2023/09/05 05:57:48;;;;;;;4.60;3.43;;;15.00;99.90;;;;;;4197115;28;20222;-75
2023/09/05 05:59:50;;;;;;;5.43;3.30;;;15.00;99.90;;;;;;4189501;28;20274;-75
2023/09/05 06:01:52;;;;;;;5.87;3.47;;;15.00;99.90;;;;;;4188481;28;20233;-75
2023/09/05 06:03:55;;;;;;;5.67;3.70;;;15.00;99.90;;;;;;4209232;28;20208;-75
2023/09/05 06:05:58;;;;;;;7.27;3.60;;;15.00;99.90;;;;;;4188495;28;20698;-75
2023/09/05 06:08:00;;;;;;;7.90;3.50;;;15.10;99.90;;;;;;4191654;28;20555;-75
2023/09/05 06:10:02;;;;;;;4.87;3.47;;;15.10;99.90;;;;;;4186944;28;20202;-75
2023/09/05 06:12:05;;;;;;;5.63;3.70;;;15.10;99.90;;;;;;4190666;28;20229;-78
2023/09/05 06:14:07;;;;;;;6.37;3.60;;;15.10;99.90;;;;;;4191475;28;20590;-76
2023/09/05 06:16:09;;;;;;;9.87;3.93;;;15.20;99.90;;;;;;4190003;28;20206;-77
2023/09/05 06:18:11;;;;;;;4.80;3.37;;;15.20;99.90;;;;;;4190464;28;20238;-77
2023/09/05 06:20:15;;;;;;;8.73;3.70;;;15.20;99.90;;;;;;4188995;28;20204;-77
2023/09/05 06:22:17;;;;;;;6.77;4.00;;;15.30;99.90;;;;;;4191167;28;20590;-76
2023/09/05 06:24:20;;;;;;;6.30;3.23;;;15.30;99.90;;;;;;4194520;28;20207;-76
2023/09/05 06:26:22;;;;;;;6.37;3.53;;;15.30;99.90;;;;;;4191330;28;20229;-77
2023/09/05 06:28:24;;;;;;;6.27;3.57;;;15.40;99.90;;;;;;4195147;28;20244;-81
2023/09/05 06:30:26;;;;;;;14.53;3.03;;;15.40;99.90;;;;;;4198008;28;20217;-80
2023/09/05 06:32:28;;;;;;;4.53;3.13;;;15.50;99.90;;;;;;4190812;28;20223;-76
2023/09/05 06:34:31;;;;;;;4.03;2.80;;;15.60;99.90;;;;;;4188722;28;20229;-76
2023/09/05 06:36:35;;;;;;;5.07;2.80;;;15.60;99.90;;;;;;4185605;28;20301;-77
2023/09/05 06:38:36;;;;;;;3.87;2.87;;;15.70;99.90;;;;;;4188935;28;20288;-77
2023/09/05 06:40:40;;;;;;;3.87;2.70;;;15.80;99.90;;;;;;4190549;28;20202;-74
2023/09/05 06:42:42;;;;;;;3.77;2.73;;;15.80;99.90;;;;;;4187150;28;20228;-74
2023/09/05 06:44:44;;;;;;;4.73;2.67;;;15.90;99.90;;;;;;4189925;28;20340;-76
2023/09/05 06:46:46;;;;;;;6.13;2.53;;;16.00;99.90;;;;;;4188147;28;20251;-75
2023/09/05 06:48:47;;;;;;;4.07;2.53;;;16.00;99.90;;;;;;4187692;28;20260;-74
2023/09/05 06:50:48;;;;;;;5.80;2.57;;;16.10;99.90;;;;;;4189385;28;20229;-74
2023/09/05 06:52:55;;;;;;;5.20;2.17;;;16.20;99.90;;;;;;4187630;28;20223;-75
2023/09/05 06:54:56;;;;;;;4.07;2.40;;;16.30;99.90;;;;;;4188573;28;20213;-74
2023/09/05 06:56:58;;;;;;;13.67;8.03;;;16.30;99.90;;;;;;4190105;28;20257;-75
2023/09/05 06:59:00;;;;;;;13.60;6.60;;;16.40;99.90;;;;;;4186431;28;20228;-74
2023/09/05 07:01:05;;;;;;;7.23;3.30;;;16.50;99.90;;;;;;4184759;28;20229;-75
2023/09/05 07:03:07;;;;;;;6.53;3.00;;;16.60;99.90;;;;;;4184816;28;20215;-74
2023/09/05 07:05:09;;;;;;;5.37;2.97;;;16.60;99.90;;;;;;4186917;28;20733;-74
2023/09/05 07:07:11;;;;;;;7.33;3.20;;;16.70;99.90;;;;;;4189052;28;20226;-77
2023/09/05 07:09:14;;;;;;;4.13;2.63;;;16.70;99.90;;;;;;4186772;28;20244;-77
2023/09/05 07:11:16;;;;;;;8.80;2.70;;;16.80;99.90;;;;;;4186607;28;20286;-75
2023/09/05 07:13:17;;;;;;;3.30;2.50;;;16.90;99.90;;;;;;4187260;28;20263;-75
2023/09/05 07:15:19;;;;;;;5.13;2.30;;;16.90;99.90;;;;;;4190533;28;20208;-75
2023/09/05 07:17:21;;;;;;;6.30;2.67;;;16.90;99.90;;;;;;4191547;28;20200;-75
2023/09/05 07:19:23;;;;;;;4.37;2.53;;;17.00;99.90;;;;;;4189869;28;20267;-75
2023/09/05 07:21:25;;;;;;;3.47;2.30;;;17.00;99.90;;;;;;4190761;28;20227;-74
2023/09/05 07:23:27;;;;;;;4.10;2.10;;;17.00;99.90;;;;;;4189533;28;20220;-75
2023/09/05 07:25:31;;;;;;;3.93;2.50;;;17.10;99.90;;;;;;4190377;28;20270;-75
2023/09/05 07:27:33;;;;;;;3.27;1.87;;;17.20;99.90;;;;;;4203091;28;20243;-75
2023/09/05 07:29:35;;;;;;;5.40;2.20;;;17.20;99.90;;;;;;4187154;28;20210;-74
2023/09/05 07:31:37;;;;;;;4.40;2.23;;;17.30;99.90;;;;;;4185750;28;20228;-74
2023/09/05 07:33:39;;;;;;;9.90;5.33;;;17.30;99.90;;;;;;4192463;28;20197;-74
2023/09/05 07:35:40;;;;;;;4.87;2.80;;;17.40;99.90;;;;;;4187516;28;20662;-74
2023/09/05 07:37:42;;;;;;;4.40;2.53;;;17.40;99.90;;;;;;4193258;28;20225;-74
2023/09/05 07:39:44;;;;;;;4.30;2.50;;;17.50;99.90;;;;;;4189834;28;20201;-74
2023/09/05 07:41:47;;;;;;;4.90;2.47;;;17.50;99.90;;;;;;4188931;28;20213;-74
2023/09/05 07:43:49;;;;;;;6.67;2.50;;;17.60;99.90;;;;;;4184194;28;20210;-75
2023/09/05 07:45:51;;;;;;;3.50;2.17;;;17.70;99.90;;;;;;4188603;28;20217;-74
2023/09/05 07:47:53;;;;;;;4.10;2.20;;;17.70;99.90;;;;;;4193020;28;20206;-74
2023/09/05 07:49:55;;;;;;;5.23;2.20;;;17.80;99.90;;;;;;4189405;28;20250;-74
2023/09/05 07:51:59;;;;;;;3.43;2.13;;;17.90;99.90;;;;;;4189146;28;20660;-74
2023/09/05 07:54:04;;;;;;;4.50;2.33;;;17.90;99.90;;;;;;4186549;28;20695;-76
2023/09/05 07:56:06;;;;;;;4.20;2.60;;;17.90;99.90;;;;;;4187942;28;20228;-75
2023/09/05 07:58:12;;;;;;;5.13;2.50;;;17.90;99.90;;;;;;4188665;28;20347;-76
2023/09/05 08:00:16;;;;;;;4.03;2.50;;;18.00;99.90;;;;;;4188737;28;20215;-76
2023/09/05 08:02:18;;;;;;;4.60;2.37;;;18.00;99.90;;;;;;4188287;28;20717;-76
2023/09/05 08:04:20;;;;;;;10.23;6.23;;;18.10;99.90;;;;;;4186988;28;20211;-76
2023/09/05 08:06:22;;;;;;;11.17;5.50;;;18.30;99.90;;;;;;4186607;28;20274;-76
2023/09/05 08:08:24;;;;;;;7.10;3.60;;;18.30;99.90;;;;;;4184877;28;20210;-76
2023/09/05 08:10:26;;;;;;;6.07;2.70;;;18.40;99.90;;;;;;4188841;28;20800;-76
2023/09/05 08:12:28;;;;;;;4.77;2.27;;;18.40;99.90;;;;;;4188393;28;20253;-76
2023/09/05 08:14:32;;;;;;;3.43;2.13;;;18.50;99.90;;;;;;4190641;28;20202;-76
2023/09/05 08:16:34;;;;;;;5.50;2.40;;;18.50;99.90;;;;;;4190250;28;20276;-75
2023/09/05 08:18:35;;;;;;;3.33;2.27;;;18.50;99.90;;;;;;4185835;28;20244;-75
2023/09/05 08:20:39;;;;;;;3.00;2.40;;;18.60;99.90;;;;;;4187524;28;20233;-75
2023/09/05 08:22:41;;;;;;;3.07;2.20;;;18.70;99.90;;;;;;4186394;28;20210;-75
2023/09/05 08:24:42;;;;;;;4.67;2.73;;;18.80;99.90;;;;;;4187540;28;20259;-75
2023/09/05 08:26:44;;;;;;;6.30;2.63;;;18.80;99.90;;;;;;4205834;28;20205;-75
2023/09/05 08:28:46;;;;;;;4.63;2.50;;;18.90;99.90;;;;;;4184890;28;20194;-75
2023/09/05 08:30:50;;;;;;;4.30;2.90;;;19.00;99.90;;;;;;4184684;28;20218;-75
2023/09/05 08:32:52;;;;;;;8.97;2.60;;;19.10;99.90;;;;;;4186399;28;20540;-75
2023/09/05 08:34:54;;;;;;;8.93;2.90;;;19.10;99.90;;;;;;4187745;28;20463;-75
2023/09/05 08:36:57;;;;;;;3.27;2.33;;;19.10;99.90;;;;;;4186241;28;20205;-75
2023/09/05 08:38:59;;;;;;;3.93;2.40;;;19.20;99.90;;;;;;4185529;28;20320;-75
2023/09/05 08:41:00;;;;;;;3.33;2.03;;;19.20;99.90;;;;;;4187648;28;20306;-75
2023/09/05 08:43:03;;;;;;;4.87;2.10;;;19.30;99.90;;;;;;4185319;28;20280;-76
2023/09/05 08:45:11;;;;;;;3.90;2.40;;;19.30;99.90;;;;;;4188682;28;20206;-75
2023/09/05 08:47:14;;;;;;;3.43;2.03;;;19.40;99.90;;;;;;4192222;28;20225;-74
2023/09/05 08:49:15;;;;;;;3.17;2.03;;;19.50;99.90;;;;;;4186822;28;20201;-75
2023/09/05 08:51:19;;;;;;;3.03;2.10;;;19.50;99.90;;;;;;4184345;28;20237;-73
2023/09/05 08:53:30;;;;;;;4.93;2.30;;;19.60;99.90;;;;;;4187104;28;20284;-74
2023/09/05 08:55:32;;;;;;;3.67;2.10;;;19.70;99.90;;;;;;4190300;28;20213;-76
2023/09/05 08:57:35;;;;;;;3.70;2.00;;;19.70;99.90;;;;;;4185515;28;20255;-75
2023/09/05 08:59:37;;;;;;;2.93;2.00;;;19.80;99.90;;;;;;4189682;28;20641;-74
2023/09/05 09:01:43;;;;;;;3.07;1.77;;;19.90;99.90;;;;;;4189129;28;20233;-75
2023/09/05 09:03:47;;;;;;;4.00;2.30;;;19.90;99.90;;;;;;4186286;28;20245;-74
2023/09/05 09:05:49;;;;;;;3.93;2.33;;;20.00;99.90;;;;;;4189403;28;20247;-74
2023/09/05 09:07:54;;;;;;;4.97;2.00;;;20.00;99.90;;;;;;4188794;28;20209;-74
2023/09/05 09:09:56;;;;;;;3.63;1.97;;;20.10;99.90;;;;;;4186930;28;20206;-74
2023/09/05 09:11:59;;;;;;;4.03;1.90;;;20.20;99.90;;;;;;4188346;28;20236;-75
2023/09/05 09:14:01;;;;;;;4.37;1.97;;;20.30;99.90;;;;;;4189422;28;20293;-74
2023/09/05 09:16:04;;;;;;;2.67;2.00;;;20.30;99.90;;;;;;4190966;28;20202;-74
2023/09/05 09:18:11;;;;;;;2.97;1.70;;;20.40;99.90;;;;;;4187943;28;20211;-75
2023/09/05 09:20:16;;;;;;;2.90;1.57;;;20.50;99.90;;;;;;4186471;28;20227;-75
2023/09/05 09:22:24;;;;;;;2.53;1.73;;;20.60;99.90;;;;;;4187371;28;20235;-75
2023/09/05 09:24:32;;;;;;;4.60;1.70;;;20.70;99.90;;;;;;4187551;28;20205;-75
2023/09/05 09:26:34;;;;;;;2.63;1.90;;;20.80;99.90;;;;;;4189655;28;20237;-75
2023/09/05 09:28:37;;;;;;;4.17;1.70;;;20.80;99.90;;;;;;4183344;28;20206;-74
2023/09/05 09:30:39;;;;;;;3.63;1.90;;;20.90;99.90;;;;;;4187422;28;20236;-74
2023/09/05 09:32:41;;;;;;;3.27;2.00;;;21.00;99.90;;;;;;4189080;28;20279;-75
2023/09/05 09:34:44;;;;;;;5.20;2.00;;;21.10;99.90;;;;;;4187943;28;20208;-75
2023/09/05 09:36:52;;;;;;;4.50;1.90;;;21.20;99.90;;;;;;4190123;28;20661;-74
2023/09/05 09:38:55;;;;;;;3.47;1.73;;;21.20;99.90;;;;;;4183574;28;20255;-74
2023/09/05 09:40:57;;;;;;;3.03;1.90;;;21.40;99.90;;;;;;4187198;28;20229;-74
2023/09/05 09:42:59;;;;;;;4.70;1.70;;;21.50;99.90;;;;;;4185030;28;20215;-75
2023/09/05 09:45:01;;;;;;;2.90;1.60;;;21.60;99.90;;;;;;4186130;28;20201;-75
2023/09/05 09:47:04;;;;;;;2.43;1.63;;;21.70;99.90;;;;;;4190980;28;20240;-76
2023/09/05 09:49:09;;;;;;;3.37;1.63;;;21.70;99.90;;;;;;4189104;28;20660;-74
2023/09/05 09:51:12;;;;;;;4.17;1.80;;;21.70;99.90;;;;;;4192023;28;20761;-73
2023/09/05 09:53:18;;;;;;;3.10;1.80;;;21.90;99.90;;;;;;4189957;28;20267;-74
2023/09/05 09:55:23;;;;;;;4.07;1.90;;;21.90;99.90;;;;;;4186129;28;20252;-73
2023/09/05 09:57:30;;;;;;;2.90;1.80;;;22.00;99.90;;;;;;4185957;28;20214;-74
2023/09/05 09:59:35;;;;;;;2.47;1.80;;;22.00;99.90;;;;;;4199951;28;20702;-74
2023/09/05 10:01:38;;;;;;;2.87;1.70;;;22.10;99.90;;;;;;4187537;28;20608;-74
2023/09/05 10:03:41;;;;;;;2.50;1.67;;;22.10;99.90;;;;;;4185490;28;20285;-74
2023/09/05 10:05:44;;;;;;;5.37;1.93;;;22.20;99.90;;;;;;4185666;28;20202;-74
2023/09/05 10:07:49;;;;;;;2.53;1.50;;;22.30;99.90;;;;;;4181507;28;20264;-73
2023/09/05 10:09:52;;;;;;;2.53;1.50;;;22.40;99.90;;;;;;4182929;28;20202;-75
2023/09/05 10:11:54;;;;;;;2.90;1.70;;;22.40;99.90;;;;;;4186236;28;20228;-75
2023/09/05 10:13:58;;;;;;;3.33;1.70;;;22.60;99.90;;;;;;4190200;28;20263;-75
2023/09/05 10:16:02;;;;;;;4.43;1.73;;;22.60;99.90;;;;;;4187606;28;20224;-75
2023/09/05 10:18:06;;;;;;;2.40;1.50;;;22.70;99.90;;;;;;4190448;28;20750;-76
2023/09/05 10:20:08;;;;;;;2.67;1.93;;;22.80;99.90;;;;;;4191712;28;20273;-77
2023/09/05 10:22:11;;;;;;;2.33;1.50;;;22.90;99.90;;;;;;4189979;28;20873;-77
2023/09/05 10:24:15;;;;;;;2.40;1.43;;;22.90;99.90;;;;;;4187933;28;20561;-78
2023/09/05 10:26:21;;;;;;;2.10;1.40;;;23.00;99.90;;;;;;4189361;28;20206;-77
2023/09/05 10:28:28;;;;;;;2.17;1.60;;;23.00;99.90;;;;;;4184724;28;20237;-77
2023/09/05 10:30:31;;;;;;;2.17;1.50;;;23.10;99.90;;;;;;4190074;28;20201;-77
2023/09/05 10:32:32;;;;;;;3.00;1.60;;;23.10;99.90;;;;;;4192866;28;20267;-77
2023/09/05 10:34:58;;;;;;;3.30;2.00;;;23.20;99.90;;;;;;4193559;28;20625;-77
2023/09/05 10:37:01;;;;;;;3.27;2.00;;;23.30;99.90;;;;;;4195103;28;20209;-77
2023/09/05 10:39:18;;;;;;;2.87;2.17;;;23.40;99.90;;;;;;4191234;28;20217;-77